Time;durP1;ratioP1;P1;durP2;ratioP2;P2;SDS_P1;SDS_P2;PMS_P1;PMS_P2;Temp;Humidity;BMP_temperature;BMP_pressure;BME280_temperature;BME280_humidity;BME280_pressure;Samples;Min_cycle;Max_cycle;Signal;HPM_P1;HPM_P2
2023/07/27 00:02:28;;;;;;;19.13;10.43;;;;;;;;;;8399576;28;20148;-88
2023/07/27 00:06:31;;;;;;;15.45;9.57;;;;;;;;;;8402123;28;20044;-88
2023/07/27 00:10:34;;;;;;;17.30;9.95;;;;;;;;;;8403658;28;20132;-88
2023/07/27 00:14:39;;;;;;;16.60;10.77;;;;;;;;;;8388802;28;20045;-89
2023/07/27 00:18:41;;;;;;;16.88;9.27;;;;;;;;;;8390982;28;20123;-88
2023/07/27 00:22:44;;;;;;;15.48;9.57;;;;;;;;;;8393657;28;20465;-88
2023/07/27 00:26:47;;;;;;;15.10;9.77;;;;;;;;;;8373709;28;20075;-86
2023/07/27 00:30:54;;;;;;;21.77;9.38;;;;;;;;;;8391336;28;20138;-88
2023/07/27 00:34:57;;;;;;;14.98;10.02;;;;;;;;;;8391587;28;20506;-89
2023/07/27 00:39:00;;;;;;;16.15;10.20;;;;;;;;;;8400477;28;20518;-85
2023/07/27 00:43:03;;;;;;;15.45;9.90;;;;;;;;;;8381044;28;20086;-89
2023/07/27 00:47:08;;;;;;;13.60;9.00;;;;;;;;;;8398341;28;20063;-88
2023/07/27 00:51:12;;;;;;;20.35;10.35;;;;;;;;;;8394544;28;20041;-87
2023/07/27 00:55:14;;;;;;;15.25;10.38;;;;;;;;;;8386594;28;20094;-88
2023/07/27 00:59:17;;;;;;;17.67;10.15;;;;;;;;;;8407149;28;20118;-89
2023/07/27 01:03:22;;;;;;;17.77;10.07;;;;;;;;;;8416892;28;20135;-86
2023/07/27 01:07:26;;;;;;;14.20;10.07;;;;;;;;;;8395185;28;20135;-90
2023/07/27 01:11:38;;;;;;;16.75;10.13;;;;;;;;;;8397672;28;20049;-86
2023/07/27 01:15:45;;;;;;;17.15;10.48;;;;;;;;;;8401937;28;20068;-88
2023/07/27 01:20:15;;;;;;;20.88;11.77;;;;;;;;;;8411928;28;20384;-90
2023/07/27 01:24:47;;;;;;;16.83;10.70;;;;;;;;;;8394239;28;20407;-89
2023/07/27 01:29:08;;;;;;;16.15;9.65;;;;;;;;;;8414677;28;20044;-85
2023/07/27 01:33:14;;;;;;;15.82;9.90;;;;;;;;;;8387184;28;20044;-85
2023/07/27 01:37:19;;;;;;;21.90;10.93;;;;;;;;;;8394835;28;20041;-85
2023/07/27 01:41:24;;;;;;;19.80;10.65;;;;;;;;;;8390940;28;20080;-86
2023/07/27 01:45:27;;;;;;;14.07;9.07;;;;;;;;;;8382783;28;20091;-85
2023/07/27 01:49:33;;;;;;;19.30;10.65;;;;;;;;;;8391046;28;20047;-88
2023/07/27 01:53:37;;;;;;;15.68;10.57;;;;;;;;;;8407017;28;20040;-87
2023/07/27 01:57:41;;;;;;;19.83;11.18;;;;;;;;;;8398096;28;20037;-86
2023/07/27 02:01:44;;;;;;;16.83;9.77;;;;;;;;;;8392355;28;20416;-87
2023/07/27 02:05:48;;;;;;;20.30;10.48;;;;;;;;;;8395012;28;20044;-87
2023/07/27 02:09:51;;;;;;;18.23;11.23;;;;;;;;;;8410384;28;20490;-87
2023/07/27 02:14:00;;;;;;;22.00;12.20;;;;;;;;;;8403959;28;20098;-88
2023/07/27 02:18:08;;;;;;;20.00;11.10;;;;;;;;;;8385592;28;20040;-88
2023/07/27 02:22:13;;;;;;;18.20;10.48;;;;;;;;;;8412320;28;20040;-86
2023/07/27 02:26:16;;;;;;;14.60;10.43;;;;;;;;;;8394995;28;20052;-87
2023/07/27 02:30:19;;;;;;;22.15;11.70;;;;;;;;;;8388599;28;20049;-87
2023/07/27 02:34:22;;;;;;;21.65;13.30;;;;;;;;;;8404175;28;20043;-88
2023/07/27 02:38:26;;;;;;;19.90;11.35;;;;;;;;;;8409855;28;20049;-86
2023/07/27 02:42:28;;;;;;;22.48;13.05;;;;;;;;;;8389983;28;20044;-87
2023/07/27 02:46:31;;;;;;;20.83;13.38;;;;;;;;;;8395064;28;20514;-85
2023/07/27 02:50:34;;;;;;;22.60;11.48;;;;;;;;;;8397631;28;20052;-87
2023/07/27 02:54:38;;;;;;;18.42;10.63;;;;;;;;;;8413700;28;20089;-86
2023/07/27 02:58:41;;;;;;;23.95;11.27;;;;;;;;;;8407123;28;20048;-86
2023/07/27 03:02:44;;;;;;;19.25;11.13;;;;;;;;;;8403763;28;20505;-89
2023/07/27 03:06:47;;;;;;;24.50;12.55;;;;;;;;;;8396711;28;20156;-87
2023/07/27 03:10:51;;;;;;;20.00;12.07;;;;;;;;;;8398031;28;20126;-89
2023/07/27 03:14:54;;;;;;;24.27;13.73;;;;;;;;;;8387854;28;20045;-89
2023/07/27 03:18:57;;;;;;;21.35;13.25;;;;;;;;;;8393927;28;20101;-87
2023/07/27 03:23:00;;;;;;;21.27;13.52;;;;;;;;;;8410121;28;20170;-88
2023/07/27 03:27:05;;;;;;;22.20;12.75;;;;;;;;;;8403674;28;20048;-87
2023/07/27 03:31:16;;;;;;;19.58;12.00;;;;;;;;;;8396851;28;20040;-90
2023/07/27 03:35:19;;;;;;;25.38;13.13;;;;;;;;;;8404049;28;20080;-86
2023/07/27 03:39:21;;;;;;;18.23;12.07;;;;;;;;;;8415571;28;20400;-86
2023/07/27 03:43:26;;;;;;;19.02;11.48;;;;;;;;;;8394981;28;20045;-89
2023/07/27 03:47:29;;;;;;;17.50;11.30;;;;;;;;;;8398072;28;20041;-89
2023/07/27 03:51:31;;;;;;;22.10;12.05;;;;;;;;;;8400139;28;20491;-90
2023/07/27 03:55:34;;;;;;;21.17;12.13;;;;;;;;;;8417659;28;20496;-89
2023/07/27 03:59:39;;;;;;;22.60;13.13;;;;;;;;;;8411123;28;20102;-88
2023/07/27 04:03:41;;;;;;;26.42;13.93;;;;;;;;;;8402043;28;20053;-89
2023/07/27 04:07:44;;;;;;;27.73;14.13;;;;;;;;;;8393743;28;20162;-89
2023/07/27 04:11:47;;;;;;;26.20;14.27;;;;;;;;;;8405937;28;20119;-88
2023/07/27 04:15:52;;;;;;;68.22;14.75;;;;;;;;;;8400468;28;20041;-88
2023/07/27 04:19:54;;;;;;;54.20;17.25;;;;;;;;;;8389052;28;20044;-88
2023/07/27 04:23:57;;;;;;;66.20;18.73;;;;;;;;;;8384639;28;20051;-89
2023/07/27 04:27:59;;;;;;;59.05;17.45;;;;;;;;;;8394517;28;20066;-89
2023/07/27 04:32:05;;;;;;;49.22;13.48;;;;;;;;;;8394584;28;20044;-86
2023/07/27 04:36:07;;;;;;;60.38;13.23;;;;;;;;;;8406198;28;20550;-85
2023/07/27 04:40:11;;;;;;;43.92;12.88;;;;;;;;;;8418003;28;20048;-86
2023/07/27 04:44:14;;;;;;;19.88;12.65;;;;;;;;;;8395015;28;20444;-85
2023/07/27 04:48:18;;;;;;;24.67;13.45;;;;;;;;;;8383353;28;20408;-86
2023/07/27 04:52:21;;;;;;;18.58;13.05;;;;;;;;;;8390159;28;20404;-86
2023/07/27 04:56:24;;;;;;;21.55;12.75;;;;;;;;;;8395245;28;20123;-86
2023/07/27 05:00:27;;;;;;;18.63;11.80;;;;;;;;;;8406251;28;20410;-86
2023/07/27 05:04:31;;;;;;;21.50;13.00;;;;;;;;;;8386078;28;21243;-86
2023/07/27 05:08:34;;;;;;;20.05;11.95;;;;;;;;;;8397181;28;20052;-86
2023/07/27 05:12:37;;;;;;;20.05;13.13;;;;;;;;;;8413299;28;20055;-85
2023/07/27 05:16:40;;;;;;;20.85;12.15;;;;;;;;;;8397029;28;20514;-87
2023/07/27 05:20:44;;;;;;;15.15;10.65;;;;;;;;;;8386300;28;20117;-86
2023/07/27 05:24:47;;;;;;;16.58;12.00;;;;;;;;;;8383925;28;20059;-89
2023/07/27 05:28:50;;;;;;;17.88;12.43;;;;;;;;;;8397428;28;20051;-86
2023/07/27 05:32:53;;;;;;;18.17;12.07;;;;;;;;;;8393126;28;20048;-87
2023/07/27 05:36:57;;;;;;;19.98;11.93;;;;;;;;;;8397499;28;20561;-86
2023/07/27 05:41:01;;;;;;;16.45;12.10;;;;;;;;;;8423249;28;20071;-87
2023/07/27 05:45:04;;;;;;;17.48;11.77;;;;;;;;;;8389102;28;20119;-86
2023/07/27 05:49:08;;;;;;;14.23;11.10;;;;;;;;;;8392768;28;20040;-87
2023/07/27 05:53:12;;;;;;;16.27;11.05;;;;;;;;;;8391434;28;20041;-87
2023/07/27 05:57:15;;;;;;;17.58;12.10;;;;;;;;;;8410636;28;20503;-87
2023/07/27 06:01:18;;;;;;;14.10;11.68;;;;;;;;;;8397761;28;20106;-83
2023/07/27 06:05:21;;;;;;;14.68;11.07;;;;;;;;;;8392686;28;20076;-84
2023/07/27 06:09:26;;;;;;;16.02;12.07;;;;;;;;;;8398224;28;20110;-88
2023/07/27 06:13:29;;;;;;;14.90;10.70;;;;;;;;;;8392556;28;20043;-85
2023/07/27 06:17:32;;;;;;;17.35;12.10;;;;;;;;;;8391551;28;20048;-85
2023/07/27 06:21:34;;;;;;;16.77;11.48;;;;;;;;;;8399417;28;20115;-84
2023/07/27 06:25:42;;;;;;;15.00;11.43;;;;;;;;;;8408022;28;20055;-93
2023/07/27 06:29:46;;;;;;;13.77;11.05;;;;;;;;;;8395069;28;20129;-87
2023/07/27 06:33:49;;;;;;;13.52;10.13;;;;;;;;;;8382854;28;20072;-87
2023/07/27 06:37:51;;;;;;;10.63;9.27;;;;;;;;;;8392402;28;20041;-87
2023/07/27 06:41:56;;;;;;;14.35;9.98;;;;;;;;;;8384728;28;20096;-85
2023/07/27 06:45:59;;;;;;;9.70;8.30;;;;;;;;;;8395224;28;20059;-89
2023/07/27 06:50:02;;;;;;;15.45;9.93;;;;;;;;;;8411699;28;20432;-90
2023/07/27 06:54:05;;;;;;;10.45;8.88;;;;;;;;;;8384291;28;20072;-87
2023/07/27 06:58:10;;;;;;;15.00;8.38;;;;;;;;;;8396730;28;20467;-86
2023/07/27 07:02:13;;;;;;;10.32;8.07;;;;;;;;;;8409986;28;20555;-87
2023/07/27 07:06:16;;;;;;;9.07;7.30;;;;;;;;;;8409870;28;20077;-90
2023/07/27 07:10:19;;;;;;;10.98;6.57;;;;;;;;;;8395584;28;20040;-86
2023/07/27 07:14:24;;;;;;;7.60;5.85;;;;;;;;;;8418137;28;20497;-86
2023/07/27 07:18:27;;;;;;;9.25;5.75;;;;;;;;;;8388592;28;20067;-85
2023/07/27 07:22:29;;;;;;;8.88;5.18;;;;;;;;;;8387826;28;20049;-85
2023/07/27 07:26:32;;;;;;;6.97;4.40;;;;;;;;;;8385006;28;20040;-86
2023/07/27 07:30:38;;;;;;;7.90;5.10;;;;;;;;;;8401387;28;20135;-91
2023/07/27 07:34:41;;;;;;;6.75;4.25;;;;;;;;;;8396996;28;20423;-96
2023/07/27 07:38:44;;;;;;;7.32;5.10;;;;;;;;;;8397306;28;20094;-95
2023/07/27 07:42:47;;;;;;;7.20;4.38;;;;;;;;;;8412927;28;20068;-93
2023/07/27 07:46:51;;;;;;;12.77;4.35;;;;;;;;;;8403498;28;20076;-84
2023/07/27 07:50:54;;;;;;;6.20;3.97;;;;;;;;;;8422183;28;20060;-90
2023/07/27 07:54:58;;;;;;;6.00;3.72;;;;;;;;;;8408962;28;20040;-91
2023/07/27 07:59:01;;;;;;;6.20;3.90;;;;;;;;;;8387519;28;20040;-92
2023/07/27 08:03:05;;;;;;;8.00;3.22;;;;;;;;;;8402390;28;20048;-95
2023/07/27 08:07:08;;;;;;;5.38;3.35;;;;;;;;;;8412537;28;20051;-94
2023/07/27 08:11:11;;;;;;;6.90;3.60;;;;;;;;;;8385214;28;20078;-84
2023/07/27 08:15:14;;;;;;;5.25;3.22;;;;;;;;;;8396111;28;20139;-85
2023/07/27 08:19:18;;;;;;;8.82;3.53;;;;;;;;;;8392981;28;20194;-84
2023/07/27 08:23:21;;;;;;;6.93;3.30;;;;;;;;;;8387352;28;20076;-84
2023/07/27 08:27:24;;;;;;;6.40;3.65;;;;;;;;;;8386443;28;20107;-86
2023/07/27 08:31:29;;;;;;;7.30;3.28;;;;;;;;;;8398767;28;20404;-95
2023/07/27 08:35:35;;;;;;;6.50;3.00;;;;;;;;;;8403806;28;20049;-90
2023/07/27 08:39:39;;;;;;;5.13;3.25;;;;;;;;;;8409942;28;20074;-95
2023/07/27 08:43:43;;;;;;;5.70;2.60;;;;;;;;;;8390645;28;20041;-92
2023/07/27 08:47:46;;;;;;;5.82;2.38;;;;;;;;;;8385820;28;20049;-96
2023/07/27 08:51:52;;;;;;;4.70;2.58;;;;;;;;;;8388152;28;20379;-94
2023/07/27 08:55:55;;;;;;;3.75;2.20;;;;;;;;;;8390653;28;20154;-87
2023/07/27 08:59:58;;;;;;;3.97;1.95;;;;;;;;;;8380855;28;20088;-85
2023/07/27 09:04:01;;;;;;;3.60;1.92;;;;;;;;;;8382690;28;20160;-86
2023/07/27 09:08:09;;;;;;;3.33;2.00;;;;;;;;;;8400715;28;20044;-84
2023/07/27 09:12:18;;;;;;;5.05;2.00;;;;;;;;;;8410009;28;20049;-84
2023/07/27 09:16:23;;;;;;;5.60;1.80;;;;;;;;;;8396291;28;20059;-85
2023/07/27 09:20:26;;;;;;;6.15;2.03;;;;;;;;;;8390435;28;20052;-89
2023/07/27 09:24:33;;;;;;;3.30;1.90;;;;;;;;;;8372876;28;20073;-86
2023/07/27 09:28:36;;;;;;;3.35;1.70;;;;;;;;;;8402681;28;20040;-85
2023/07/27 09:32:39;;;;;;;3.03;1.80;;;;;;;;;;8370006;28;20197;-90
2023/07/27 09:36:43;;;;;;;3.08;1.63;;;;;;;;;;8390553;28;20044;-86
2023/07/27 09:40:50;;;;;;;1.42;1.27;;;;;;;;;;8383795;28;20502;-85
2023/07/27 09:44:55;;;;;;;3.17;1.67;;;;;;;;;;8385509;28;20044;-86
2023/07/27 09:48:58;;;;;;;1.95;1.60;;;;;;;;;;8386961;28;20044;-94
2023/07/27 09:53:03;;;;;;;2.90;1.30;;;;;;;;;;8394231;28;20044;-90
2023/07/27 09:57:07;;;;;;;3.80;1.50;;;;;;;;;;8368723;28;20485;-88
2023/07/27 10:01:10;;;;;;;2.25;1.70;;;;;;;;;;8371173;28;20404;-88
2023/07/27 10:05:13;;;;;;;3.33;1.77;;;;;;;;;;8395467;28;20056;-87
2023/07/27 10:09:21;;;;;;;3.15;1.60;;;;;;;;;;8376679;28;20047;-92
2023/07/27 10:13:41;;;;;;;3.70;1.50;;;;;;;;;;8418928;28;20037;-89
2023/07/27 10:17:47;;;;;;;4.10;1.60;;;;;;;;;;8430633;28;20040;-84
2023/07/27 10:21:51;;;;;;;2.85;1.60;;;;;;;;;;8406445;28;20045;-84
2023/07/27 10:26:04;;;;;;;2.38;1.67;;;;;;;;;;8416420;28;20053;-84
2023/07/27 10:30:14;;;;;;;2.38;1.58;;;;;;;;;;8407400;28;20055;-85
2023/07/27 10:34:18;;;;;;;4.00;1.90;;;;;;;;;;8408893;28;20044;-87
2023/07/27 10:38:23;;;;;;;2.05;1.50;;;;;;;;;;8388375;28;20079;-86
2023/07/27 10:42:29;;;;;;;2.00;1.52;;;;;;;;;;8390305;28;20049;-87
2023/07/27 10:46:36;;;;;;;2.15;1.48;;;;;;;;;;8390810;28;20873;-86
2023/07/27 10:50:40;;;;;;;2.00;1.40;;;;;;;;;;8396142;28;20464;-84
2023/07/27 10:54:44;;;;;;;2.05;1.48;;;;;;;;;;8399139;28;20071;-87
2023/07/27 10:58:48;;;;;;;2.80;1.50;;;;;;;;;;8405295;28;20054;-86
2023/07/27 11:02:54;;;;;;;2.67;1.50;;;;;;;;;;8398201;28;20056;-89
2023/07/27 11:06:57;;;;;;;2.13;1.50;;;;;;;;;;8413666;28;20044;-91
2023/07/27 11:11:14;;;;;;;1.88;1.52;;;;;;;;;;8377078;28;20139;-90
2023/07/27 11:15:18;;;;;;;2.22;1.58;;;;;;;;;;8401702;28;20123;-92
2023/07/27 11:19:24;;;;;;;2.88;1.40;;;;;;;;;;8408604;28;20075;-89
2023/07/27 11:23:28;;;;;;;2.17;1.50;;;;;;;;;;8392755;28;20187;-86
2023/07/27 11:27:31;;;;;;;1.85;1.50;;;;;;;;;;8413911;28;20876;-87
2023/07/27 11:31:34;;;;;;;2.13;1.40;;;;;;;;;;8398400;28;20123;-89
2023/07/27 11:35:47;;;;;;;5.10;1.83;;;;;;;;;;8392402;28;20127;-89
2023/07/27 11:39:50;;;;;;;2.88;1.10;;;;;;;;;;8394725;28;20056;-86
2023/07/27 11:43:55;;;;;;;2.10;1.45;;;;;;;;;;8401830;28;20051;-92
2023/07/27 11:47:57;;;;;;;4.43;1.73;;;;;;;;;;8403338;28;20481;-91
2023/07/27 11:52:07;;;;;;;1.98;1.48;;;;;;;;;;8384051;28;20052;-86
2023/07/27 11:56:11;;;;;;;2.92;1.42;;;;;;;;;;8401357;28;20048;-89
2023/07/27 12:00:15;;;;;;;7.13;1.65;;;;;;;;;;8404025;28;20048;-93
2023/07/27 12:04:18;;;;;;;4.15;1.70;;;;;;;;;;8390920;28;20132;-86
2023/07/27 12:08:23;;;;;;;3.75;1.70;;;;;;;;;;8401020;28;20182;-93
2023/07/27 12:12:26;;;;;;;3.25;1.50;;;;;;;;;;8394607;28;20538;-87
2023/07/27 12:16:28;;;;;;;2.47;1.70;;;;;;;;;;8386668;28;20135;-89
2023/07/27 12:20:33;;;;;;;2.40;1.63;;;;;;;;;;8407094;28;20135;-90
2023/07/27 12:24:38;;;;;;;2.80;1.73;;;;;;;;;;8389796;28;20500;-90
2023/07/27 12:28:41;;;;;;;2.08;1.52;;;;;;;;;;8386969;28;20087;-90
2023/07/27 12:32:44;;;;;;;3.15;1.80;;;;;;;;;;8389632;28;20044;-90
2023/07/27 12:36:47;;;;;;;6.20;1.58;;;;;;;;;;8393730;28;20548;-88
2023/07/27 12:40:51;;;;;;;3.35;1.55;;;;;;;;;;8390440;28;20049;-87
2023/07/27 12:44:56;;;;;;;2.92;1.73;;;;;;;;;;8393487;28;20051;-90
2023/07/27 12:49:00;;;;;;;4.57;2.08;;;;;;;;;;8393957;28;20416;-85
2023/07/27 12:53:03;;;;;;;5.63;1.92;;;;;;;;;;8398383;28;20487;-85
2023/07/27 12:57:08;;;;;;;5.43;1.90;;;;;;;;;;8393223;28;20072;-92
2023/07/27 13:01:10;;;;;;;2.85;1.75;;;;;;;;;;8397476;28;20096;-89
2023/07/27 13:05:15;;;;;;;4.50;1.90;;;;;;;;;;8377558;28;20081;-92
2023/07/27 13:09:19;;;;;;;3.13;2.10;;;;;;;;;;8395128;28;20655;-86
2023/07/27 13:13:24;;;;;;;3.03;1.85;;;;;;;;;;8377150;28;20102;-84
2023/07/27 13:17:27;;;;;;;3.92;2.10;;;;;;;;;;8384195;28;20059;-86
2023/07/27 13:25:55;;;;;;;3.22;1.98;;;;;;;;;;8374149;28;20041;-86
2023/07/27 13:30:03;;;;;;;3.45;1.80;;;;;;;;;;8385250;28;20044;-88
2023/07/27 13:34:06;;;;;;;2.22;1.73;;;;;;;;;;8376169;28;20095;-84
2023/07/27 13:38:09;;;;;;;2.78;1.77;;;;;;;;;;8381826;28;20055;-89
2023/07/27 13:42:12;;;;;;;2.45;1.88;;;;;;;;;;8397159;28;20049;-83
2023/07/27 13:46:16;;;;;;;4.47;1.90;;;;;;;;;;8379625;28;20044;-89
2023/07/27 13:50:19;;;;;;;3.25;2.10;;;;;;;;;;8382429;28;20555;-88
2023/07/27 13:54:22;;;;;;;1.88;1.67;;;;;;;;;;8391140;28;20536;-86
2023/07/27 13:58:25;;;;;;;4.80;2.00;;;;;;;;;;8387778;28;20056;-83
2023/07/27 14:02:30;;;;;;;3.30;1.98;;;;;;;;;;8379518;28;20057;-90
2023/07/27 14:06:33;;;;;;;3.17;1.73;;;;;;;;;;8397048;28;20249;-88
2023/07/27 14:10:36;;;;;;;3.20;1.80;;;;;;;;;;8410620;28;20130;-88
2023/07/27 14:14:38;;;;;;;2.72;2.00;;;;;;;;;;8390545;28;20048;-89
2023/07/27 14:18:43;;;;;;;3.33;1.90;;;;;;;;;;8382851;28;20798;-83
2023/07/27 14:22:49;;;;;;;5.47;1.88;;;;;;;;;;8401499;28;20093;-89
2023/07/27 14:26:52;;;;;;;2.83;1.88;;;;;;;;;;8396689;28;20049;-83
2023/07/27 14:31:00;;;;;;;4.07;2.10;;;;;;;;;;8388838;28;20044;-83
2023/07/27 14:35:05;;;;;;;3.70;1.90;;;;;;;;;;8426555;28;20069;-89
2023/07/27 14:39:08;;;;;;;3.75;2.38;;;;;;;;;;8381227;28;20048;-89
2023/07/27 14:43:22;;;;;;;7.45;3.53;;;;;;;;;;8395150;28;20530;-82
2023/07/27 14:47:25;;;;;;;5.80;3.15;;;;;;;;;;8400189;28;20052;-83
2023/07/27 14:51:29;;;;;;;4.20;2.17;;;;;;;;;;8399640;28;20361;-86
2023/07/27 14:55:32;;;;;;;5.70;3.38;;;;;;;;;;8399653;28;20076;-86
2023/07/27 14:59:38;;;;;;;3.97;2.20;;;;;;;;;;8393941;28;20052;-87
2023/07/27 15:03:41;;;;;;;3.47;2.00;;;;;;;;;;8388586;28;20148;-87
2023/07/27 15:07:49;;;;;;;2.53;1.90;;;;;;;;;;8383895;28;20091;-88
2023/07/27 15:11:52;;;;;;;3.92;2.10;;;;;;;;;;8380532;28;20087;-87
2023/07/27 15:15:55;;;;;;;3.30;2.17;;;;;;;;;;8380788;28;20436;-84
2023/07/27 15:19:58;;;;;;;7.32;2.00;;;;;;;;;;8392558;28;20579;-86
2023/07/27 15:24:05;;;;;;;3.50;2.05;;;;;;;;;;8389589;28;20041;-82
2023/07/27 15:28:08;;;;;;;3.08;1.92;;;;;;;;;;8407797;28;20056;-88
2023/07/27 15:32:12;;;;;;;7.70;1.90;;;;;;;;;;8397722;28;20044;-88
2023/07/27 15:36:15;;;;;;;3.20;2.00;;;;;;;;;;8378835;28;20045;-87
2023/07/27 15:40:20;;;;;;;4.13;2.10;;;;;;;;;;8396551;28;20109;-89
2023/07/27 15:44:23;;;;;;;4.65;2.47;;;;;;;;;;8401279;28;20080;-88
2023/07/27 15:48:27;;;;;;;2.63;2.03;;;;;;;;;;8380561;28;20393;-86
2023/07/27 15:52:30;;;;;;;3.33;2.20;;;;;;;;;;8382611;28;20116;-89
2023/07/27 15:56:34;;;;;;;3.05;2.20;;;;;;;;;;8392569;28;20140;-86
2023/07/27 16:00:39;;;;;;;3.85;2.05;;;;;;;;;;8376909;28;20044;-84
2023/07/27 16:04:42;;;;;;;3.63;2.40;;;;;;;;;;8406128;28;20044;-89
2023/07/27 16:08:45;;;;;;;3.35;2.50;;;;;;;;;;8382886;28;20059;-87
2023/07/27 16:12:50;;;;;;;4.22;2.47;;;;;;;;;;8395886;28;20052;-87
2023/07/27 16:16:54;;;;;;;3.70;2.47;;;;;;;;;;8415462;28;20522;-89
2023/07/27 16:20:57;;;;;;;9.85;3.97;;;;;;;;;;8389291;28;20133;-86
2023/07/27 16:25:00;;;;;;;6.80;4.00;;;;;;;;;;8383147;28;20072;-86
2023/07/27 16:29:20;;;;;;;9.00;4.78;;;;;;;;;;8383186;28;20834;-87
2023/07/27 16:33:24;;;;;;;;;;;;;;;;;;8377308;28;20061;-85
2023/07/27 16:37:27;;;;;;;9.68;5.95;;;;;;;;;;8374525;28;19924;-89
2023/07/27 16:41:30;;;;;;;10.20;5.80;;;;;;;;;;8387404;28;20450;-88
2023/07/27 16:45:38;;;;;;;9.02;4.43;;;;;;;;;;8378496;28;20843;-89
2023/07/27 16:49:41;;;;;;;8.60;4.32;;;;;;;;;;8385895;28;20147;-84
2023/07/27 16:53:44;;;;;;;7.38;3.20;;;;;;;;;;8382618;28;20143;-87
2023/07/27 16:57:47;;;;;;;5.80;3.35;;;;;;;;;;8398344;28;20118;-88
2023/07/27 17:01:52;;;;;;;6.20;3.42;;;;;;;;;;8385699;28;20159;-85
2023/07/27 17:05:55;;;;;;;5.97;2.88;;;;;;;;;;8378221;28;20458;-87
2023/07/27 17:09:59;;;;;;;4.10;2.63;;;;;;;;;;8386529;28;20056;-86
2023/07/27 17:14:02;;;;;;;5.07;2.88;;;;;;;;;;8382186;28;20079;-90
2023/07/27 17:18:07;;;;;;;4.72;3.08;;;;;;;;;;8376261;28;20480;-89
2023/07/27 17:22:14;;;;;;;4.47;3.35;;;;;;;;;;8378342;28;20461;-84
2023/07/27 17:26:23;;;;;;;5.00;3.20;;;;;;;;;;8373212;28;20051;-89
2023/07/27 17:30:27;;;;;;;6.18;2.92;;;;;;;;;;8392887;28;20108;-90
2023/07/27 17:34:33;;;;;;;5.82;3.53;;;;;;;;;;8384102;28;20128;-91
2023/07/27 17:38:38;;;;;;;11.98;6.75;;;;;;;;;;8392351;28;20044;-95
2023/07/27 17:42:42;;;;;;;21.65;9.90;;;;;;;;;;8403880;28;20401;-88
2023/07/27 17:46:45;;;;;;;6.38;3.92;;;;;;;;;;8395762;28;20431;-91
2023/07/27 17:50:55;;;;;;;5.57;3.88;;;;;;;;;;8394098;28;20109;-95
2023/07/27 17:54:59;;;;;;;5.97;3.78;;;;;;;;;;8393696;28;20205;-91
2023/07/27 17:59:02;;;;;;;5.93;4.00;;;;;;;;;;8385495;28;20579;-90
2023/07/27 18:03:06;;;;;;;6.07;4.28;;;;;;;;;;8405560;28;20056;-93
2023/07/27 18:07:13;;;;;;;5.85;4.28;;;;;;;;;;8399005;28;20044;-86
2023/07/27 18:11:17;;;;;;;5.07;4.35;;;;;;;;;;8386297;28;20107;-90
2023/07/27 18:15:21;;;;;;;6.35;4.68;;;;;;;;;;8387132;28;20052;-92
2023/07/27 18:19:24;;;;;;;10.02;4.53;;;;;;;;;;8407140;28;20044;-90
2023/07/27 18:23:29;;;;;;;6.60;4.45;;;;;;;;;;8381780;28;20044;-91
2023/07/27 18:27:32;;;;;;;6.20;4.57;;;;;;;;;;8387962;28;20348;-92
2023/07/27 18:31:35;;;;;;;7.43;4.80;;;;;;;;;;8394407;28;20048;-86
2023/07/27 18:35:39;;;;;;;6.53;5.13;;;;;;;;;;8410756;28;20519;-87
2023/07/27 18:39:46;;;;;;;6.00;4.72;;;;;;;;;;8398810;28;20071;-84
2023/07/27 18:43:52;;;;;;;8.60;5.10;;;;;;;;;;8428786;28;20072;-87
2023/07/27 18:47:59;;;;;;;8.88;5.70;;;;;;;;;;8416593;28;20445;-89
2023/07/27 18:52:04;;;;;;;7.45;5.75;;;;;;;;;;8433448;28;20040;-90
2023/07/27 18:56:12;;;;;;;9.75;5.47;;;;;;;;;;8424078;28;20047;-87
2023/07/27 19:00:18;;;;;;;7.03;5.78;;;;;;;;;;8425164;28;20048;-84
2023/07/27 19:04:22;;;;;;;9.00;6.13;;;;;;;;;;8391871;28;20489;-87
2023/07/27 19:08:28;;;;;;;10.50;7.10;;;;;;;;;;8421258;28;20048;-88
2023/07/27 19:12:33;;;;;;;15.85;6.97;;;;;;;;;;8405280;28;20048;-88
2023/07/27 19:16:36;;;;;;;11.02;6.47;;;;;;;;;;8421931;28;20051;-89
2023/07/27 19:20:40;;;;;;;11.60;6.40;;;;;;;;;;8397211;28;20080;-86
2023/07/27 19:24:44;;;;;;;10.27;7.57;;;;;;;;;;8404515;28;20051;-92
2023/07/27 19:28:49;;;;;;;11.93;8.13;;;;;;;;;;8387512;28;20075;-92
2023/07/27 19:32:52;;;;;;;10.55;7.75;;;;;;;;;;8387141;28;20048;-88
2023/07/27 19:36:56;;;;;;;10.23;7.85;;;;;;;;;;8398967;28;20055;-84
2023/07/27 19:40:59;;;;;;;12.85;8.15;;;;;;;;;;8395517;28;20078;-91
2023/07/27 19:45:05;;;;;;;12.98;8.48;;;;;;;;;;8412074;28;20056;-90
2023/07/27 19:49:10;;;;;;;11.38;8.68;;;;;;;;;;8389703;28;20045;-90
2023/07/27 19:53:15;;;;;;;12.77;8.57;;;;;;;;;;8382809;28;20052;-89
2023/07/27 19:57:18;;;;;;;17.02;10.32;;;;;;;;;;8412224;28;20056;-91
2023/07/27 20:01:24;;;;;;;13.88;9.18;;;;;;;;;;8411299;28;20076;-91
2023/07/27 20:05:27;;;;;;;11.30;8.43;;;;;;;;;;8423536;28;20044;-92
2023/07/27 20:09:31;;;;;;;16.73;9.88;;;;;;;;;;8404497;28;20044;-90
2023/07/27 20:13:34;;;;;;;14.70;9.20;;;;;;;;;;8418922;28;20051;-91
2023/07/27 20:17:41;;;;;;;13.85;8.38;;;;;;;;;;8404498;28;20040;-89
2023/07/27 20:21:45;;;;;;;12.70;9.05;;;;;;;;;;8392989;28;20078;-91
2023/07/27 20:25:49;;;;;;;15.27;9.48;;;;;;;;;;8411788;28;20056;-91
2023/07/27 20:29:52;;;;;;;17.25;8.52;;;;;;;;;;8409051;28;20055;-91
2023/07/27 20:33:58;;;;;;;14.90;9.05;;;;;;;;;;8417267;28;20071;-91
2023/07/27 20:38:04;;;;;;;13.90;7.45;;;;;;;;;;8404241;28;20127;-92
2023/07/27 20:42:10;;;;;;;11.48;7.57;;;;;;;;;;8392749;28;20052;-88
2023/07/27 20:46:14;;;;;;;16.30;9.15;;;;;;;;;;8420680;28;20048;-91
2023/07/27 20:50:21;;;;;;;12.57;8.77;;;;;;;;;;8397363;28;20056;-91
2023/07/27 20:54:24;;;;;;;18.67;8.88;;;;;;;;;;8396547;28;20530;-88
2023/07/27 20:58:28;;;;;;;13.13;9.20;;;;;;;;;;8406659;28;20048;-85
2023/07/27 21:02:31;;;;;;;14.15;9.68;;;;;;;;;;8386133;28;20060;-92
2023/07/27 21:06:36;;;;;;;12.55;8.80;;;;;;;;;;8383767;28;20118;-90
2023/07/27 21:10:39;;;;;;;12.88;8.25;;;;;;;;;;8406848;28;20131;-86
2023/07/27 21:14:42;;;;;;;16.52;9.05;;;;;;;;;;8410980;28;20036;-89
2023/07/27 21:18:45;;;;;;;11.82;9.32;;;;;;;;;;8384261;28;20069;-89
2023/07/27 21:22:49;;;;;;;12.75;7.88;;;;;;;;;;8398089;28;20076;-91
2023/07/27 21:26:52;;;;;;;8.85;7.25;;;;;;;;;;8395610;28;20124;-91
2023/07/27 21:30:56;;;;;;;9.20;7.22;;;;;;;;;;8390904;28;20503;-91
2023/07/27 21:34:58;;;;;;;9.75;6.80;;;;;;;;;;8403088;28;20400;-91
2023/07/27 21:39:02;;;;;;;9.55;7.60;;;;;;;;;;8377582;28;20511;-92
2023/07/27 21:43:05;;;;;;;10.93;7.43;;;;;;;;;;8376181;28;20080;-91
2023/07/27 21:47:08;;;;;;;11.80;7.68;;;;;;;;;;8381860;28;20489;-87
2023/07/27 21:51:11;;;;;;;10.88;7.20;;;;;;;;;;8392214;28;20044;-89
2023/07/27 21:55:15;;;;;;;13.20;7.55;;;;;;;;;;8386845;28;20442;-91
2023/07/27 21:59:17;;;;;;;13.95;7.75;;;;;;;;;;8393945;28;20052;-91
2023/07/27 22:03:20;;;;;;;10.38;7.65;;;;;;;;;;8394685;28;20052;-91
2023/07/27 22:07:23;;;;;;;10.27;7.88;;;;;;;;;;8385065;28;20048;-90
2023/07/27 22:11:27;;;;;;;10.82;7.55;;;;;;;;;;8409744;28;20301;-90
2023/07/27 22:15:30;;;;;;;10.20;7.57;;;;;;;;;;8400482;28;20126;-89
2023/07/27 22:19:33;;;;;;;14.32;6.43;;;;;;;;;;8387391;28;20040;-91
2023/07/27 22:23:36;;;;;;;12.95;7.43;;;;;;;;;;8408448;28;20045;-90
2023/07/27 22:27:40;;;;;;;8.68;6.40;;;;;;;;;;8423163;28;20074;-91
2023/07/27 22:31:45;;;;;;;12.02;6.88;;;;;;;;;;8416525;28;20119;-90
2023/07/27 22:35:48;;;;;;;10.30;7.00;;;;;;;;;;8421201;28;20051;-90
2023/07/27 22:39:50;;;;;;;9.95;6.93;;;;;;;;;;8403418;28;20076;-90
2023/07/27 22:43:54;;;;;;;9.43;6.40;;;;;;;;;;8410599;28;20049;-90
2023/07/27 22:47:57;;;;;;;10.10;6.85;;;;;;;;;;8394809;28;20052;-91
2023/07/27 22:52:00;;;;;;;10.15;7.03;;;;;;;;;;8412615;28;20041;-90
2023/07/27 22:56:03;;;;;;;8.77;5.88;;;;;;;;;;8408347;28;20453;-90
2023/07/27 23:00:10;;;;;;;9.30;6.22;;;;;;;;;;8411377;28;20044;-90
2023/07/27 23:04:13;;;;;;;8.45;6.15;;;;;;;;;;8403519;28;20088;-91
2023/07/27 23:08:16;;;;;;;12.80;7.00;;;;;;;;;;8383853;28;20124;-91
2023/07/27 23:12:19;;;;;;;12.18;6.88;;;;;;;;;;8395952;28;20129;-83
2023/07/27 23:16:23;;;;;;;9.00;5.63;;;;;;;;;;8392972;28;20166;-91
2023/07/27 23:20:26;;;;;;;9.23;5.95;;;;;;;;;;8397457;28;20048;-91
2023/07/27 23:24:29;;;;;;;7.55;5.65;;;;;;;;;;8396122;28;20445;-88
2023/07/27 23:28:32;;;;;;;11.90;5.82;;;;;;;;;;8393859;28;20064;-89
2023/07/27 23:32:36;;;;;;;7.63;6.15;;;;;;;;;;8387076;28;20508;-90
2023/07/27 23:36:39;;;;;;;9.18;6.10;;;;;;;;;;8392504;28;20044;-90
2023/07/27 23:40:43;;;;;;;9.75;5.82;;;;;;;;;;8409635;28;20040;-92
2023/07/27 23:44:45;;;;;;;7.80;6.00;;;;;;;;;;8411992;28;20044;-90
2023/07/27 23:48:50;;;;;;;9.50;6.20;;;;;;;;;;8395482;28;20059;-91
2023/07/27 23:52:53;;;;;;;8.55;5.47;;;;;;;;;;8399190;28;20110;-91
2023/07/27 23:56:55;;;;;;;7.63;5.43;;;;;;;;;;8385207;28;20040;-86
